sensor_id;sensor_type;location;lat;lon;timestamp;temperature;humidity
35645;DHT22;21764;52.042;6.830;2022-10-16T00:04:55;12.20;99.90
35645;DHT22;21764;52.042;6.830;2022-10-16T00:09:56;12.20;99.90
35645;DHT22;21764;52.042;6.830;2022-10-16T00:14:56;12.20;99.90
35645;DHT22;21764;52.042;6.830;2022-10-16T00:19:57;12.10;99.90
35645;DHT22;21764;52.042;6.830;2022-10-16T00:24:58;12.10;99.90
35645;DHT22;21764;52.042;6.830;2022-10-16T00:29:59;12.00;99.90
35645;DHT22;21764;52.042;6.830;2022-10-16T00:34:59;12.00;99.90
35645;DHT22;21764;52.042;6.830;2022-10-16T00:40:00;11.90;99.90
35645;DHT22;21764;52.042;6.830;2022-10-16T00:45:01;11.90;99.90
35645;DHT22;21764;52.042;6.830;2022-10-16T00:50:28;11.90;99.90
35645;DHT22;21764;52.042;6.830;2022-10-16T00:55:30;11.90;99.90
35645;DHT22;21764;52.042;6.830;2022-10-16T01:00:31;11.70;99.90
35645;DHT22;21764;52.042;6.830;2022-10-16T01:05:43;11.80;99.90
35645;DHT22;21764;52.042;6.830;2022-10-16T01:10:54;11.60;99.90
35645;DHT22;21764;52.042;6.830;2022-10-16T01:16:33;11.70;99.90
35645;DHT22;21764;52.042;6.830;2022-10-16T01:21:40;11.80;99.90
35645;DHT22;21764;52.042;6.830;2022-10-16T01:32:18;11.80;99.90
35645;DHT22;21764;52.042;6.830;2022-10-16T01:37:43;11.90;99.90
35645;DHT22;21764;52.042;6.830;2022-10-16T01:43:12;12.00;99.90
35645;DHT22;21764;52.042;6.830;2022-10-16T01:48:19;11.90;99.90
35645;DHT22;21764;52.042;6.830;2022-10-16T01:53:20;11.80;99.90
35645;DHT22;21764;52.042;6.830;2022-10-16T01:58:23;11.90;99.90
35645;DHT22;21764;52.042;6.830;2022-10-16T02:03:25;11.90;99.90
35645;DHT22;21764;52.042;6.830;2022-10-16T02:08:28;11.90;99.90
35645;DHT22;21764;52.042;6.830;2022-10-16T02:13:34;11.90;99.90
35645;DHT22;21764;52.042;6.830;2022-10-16T02:18:36;12.00;99.90
35645;DHT22;21764;52.042;6.830;2022-10-16T02:23:43;12.00;99.90
35645;DHT22;21764;52.042;6.830;2022-10-16T02:28:48;12.10;99.90
35645;DHT22;21764;52.042;6.830;2022-10-16T02:33:53;12.30;99.90
35645;DHT22;21764;52.042;6.830;2022-10-16T02:38:55;12.30;99.90
35645;DHT22;21764;52.042;6.830;2022-10-16T02:43:56;12.40;99.90
35645;DHT22;21764;52.042;6.830;2022-10-16T02:48:56;12.40;99.90
35645;DHT22;21764;52.042;6.830;2022-10-16T02:53:57;12.50;99.90
35645;DHT22;21764;52.042;6.830;2022-10-16T02:58:58;12.50;99.90
35645;DHT22;21764;52.042;6.830;2022-10-16T03:03:58;12.50;99.90
35645;DHT22;21764;52.042;6.830;2022-10-16T03:08:59;12.40;99.90
35645;DHT22;21764;52.042;6.830;2022-10-16T03:13:59;12.30;99.90
35645;DHT22;21764;52.042;6.830;2022-10-16T03:19:01;12.30;99.90
35645;DHT22;21764;52.042;6.830;2022-10-16T03:24:01;12.40;99.90
35645;DHT22;21764;52.042;6.830;2022-10-16T03:29:03;12.60;99.90
35645;DHT22;21764;52.042;6.830;2022-10-16T03:34:03;12.40;99.90
35645;DHT22;21764;52.042;6.830;2022-10-16T03:39:04;12.50;99.90
35645;DHT22;21764;52.042;6.830;2022-10-16T03:44:05;12.30;99.90
35645;DHT22;21764;52.042;6.830;2022-10-16T03:49:06;12.30;99.90
35645;DHT22;21764;52.042;6.830;2022-10-16T03:54:06;12.30;99.90
35645;DHT22;21764;52.042;6.830;2022-10-16T03:59:07;12.50;99.90
35645;DHT22;21764;52.042;6.830;2022-10-16T04:04:08;12.50;99.90
35645;DHT22;21764;52.042;6.830;2022-10-16T04:09:08;12.60;99.90
35645;DHT22;21764;52.042;6.830;2022-10-16T04:14:09;12.50;99.90
35645;DHT22;21764;52.042;6.830;2022-10-16T04:19:10;12.30;99.90
35645;DHT22;21764;52.042;6.830;2022-10-16T04:24:11;12.20;99.90
35645;DHT22;21764;52.042;6.830;2022-10-16T04:29:12;12.20;99.90
35645;DHT22;21764;52.042;6.830;2022-10-16T04:34:13;12.10;99.90
35645;DHT22;21764;52.042;6.830;2022-10-16T04:39:13;12.10;99.90
35645;DHT22;21764;52.042;6.830;2022-10-16T04:44:14;12.30;99.90
35645;DHT22;21764;52.042;6.830;2022-10-16T04:49:15;12.20;99.90
35645;DHT22;21764;52.042;6.830;2022-10-16T04:54:15;12.20;99.90
35645;DHT22;21764;52.042;6.830;2022-10-16T04:59:17;12.20;99.90
35645;DHT22;21764;52.042;6.830;2022-10-16T05:04:17;12.20;99.90
35645;DHT22;21764;52.042;6.830;2022-10-16T05:09:18;12.20;99.90
35645;DHT22;21764;52.042;6.830;2022-10-16T05:14:19;12.30;99.90
35645;DHT22;21764;52.042;6.830;2022-10-16T05:19:19;12.20;99.90
35645;DHT22;21764;52.042;6.830;2022-10-16T05:24:20;12.20;99.90
35645;DHT22;21764;52.042;6.830;2022-10-16T05:29:21;12.10;99.90
35645;DHT22;21764;52.042;6.830;2022-10-16T05:34:22;11.90;99.90
35645;DHT22;21764;52.042;6.830;2022-10-16T05:39:22;11.90;99.90
35645;DHT22;21764;52.042;6.830;2022-10-16T05:44:23;12.00;99.90
35645;DHT22;21764;52.042;6.830;2022-10-16T05:49:24;12.10;99.90
35645;DHT22;21764;52.042;6.830;2022-10-16T05:54:25;12.10;99.90
35645;DHT22;21764;52.042;6.830;2022-10-16T05:59:25;11.90;99.90
35645;DHT22;21764;52.042;6.830;2022-10-16T06:04:26;11.90;99.90
35645;DHT22;21764;52.042;6.830;2022-10-16T06:09:27;11.90;99.90
35645;DHT22;21764;52.042;6.830;2022-10-16T06:14:27;11.90;99.90
35645;DHT22;21764;52.042;6.830;2022-10-16T06:19:28;11.90;99.90
35645;DHT22;21764;52.042;6.830;2022-10-16T06:24:29;12.10;99.90
35645;DHT22;21764;52.042;6.830;2022-10-16T06:29:29;12.10;99.90
35645;DHT22;21764;52.042;6.830;2022-10-16T06:34:30;12.40;99.90
35645;DHT22;21764;52.042;6.830;2022-10-16T06:39:31;12.40;99.90
35645;DHT22;21764;52.042;6.830;2022-10-16T06:44:31;12.60;99.90
35645;DHT22;21764;52.042;6.830;2022-10-16T06:49:32;12.90;99.90
35645;DHT22;21764;52.042;6.830;2022-10-16T06:54:32;12.80;99.90
35645;DHT22;21764;52.042;6.830;2022-10-16T06:59:33;13.00;99.90
35645;DHT22;21764;52.042;6.830;2022-10-16T07:04:35;13.30;99.90
35645;DHT22;21764;52.042;6.830;2022-10-16T07:09:36;15.40;99.90
35645;DHT22;21764;52.042;6.830;2022-10-16T07:14:37;21.10;99.90
35645;DHT22;21764;52.042;6.830;2022-10-16T07:19:37;24.00;99.90
35645;DHT22;21764;52.042;6.830;2022-10-16T07:24:38;25.10;99.90
35645;DHT22;21764;52.042;6.830;2022-10-16T07:29:39;25.20;99.90
35645;DHT22;21764;52.042;6.830;2022-10-16T07:34:40;25.50;99.90
35645;DHT22;21764;52.042;6.830;2022-10-16T07:39:40;27.20;98.20
35645;DHT22;21764;52.042;6.830;2022-10-16T07:44:41;28.00;94.30
35645;DHT22;21764;52.042;6.830;2022-10-16T07:49:41;29.10;92.60
35645;DHT22;21764;52.042;6.830;2022-10-16T07:54:42;29.30;90.40
35645;DHT22;21764;52.042;6.830;2022-10-16T07:59:43;29.30;86.40
35645;DHT22;21764;52.042;6.830;2022-10-16T08:04:43;30.20;84.60
35645;DHT22;21764;52.042;6.830;2022-10-16T08:09:49;30.80;80.50
35645;DHT22;21764;52.042;6.830;2022-10-16T08:14:51;31.00;79.10
35645;DHT22;21764;52.042;6.830;2022-10-16T08:19:52;32.80;73.90
35645;DHT22;21764;52.042;6.830;2022-10-16T08:24:53;33.40;71.30
35645;DHT22;21764;52.042;6.830;2022-10-16T08:29:53;30.00;73.50
35645;DHT22;21764;52.042;6.830;2022-10-16T08:34:54;32.50;69.80
35645;DHT22;21764;52.042;6.830;2022-10-16T08:39:54;33.60;65.20
35645;DHT22;21764;52.042;6.830;2022-10-16T08:50:10;33.70;61.90
35645;DHT22;21764;52.042;6.830;2022-10-16T09:00:24;27.50;72.40
35645;DHT22;21764;52.042;6.830;2022-10-16T09:10:55;25.00;81.30
35645;DHT22;21764;52.042;6.830;2022-10-16T09:16:30;23.80;88.20
35645;DHT22;21764;52.042;6.830;2022-10-16T09:21:40;30.40;77.60
35645;DHT22;21764;52.042;6.830;2022-10-16T09:26:42;32.10;69.50
35645;DHT22;21764;52.042;6.830;2022-10-16T09:31:43;28.90;73.60
35645;DHT22;21764;52.042;6.830;2022-10-16T09:36:45;32.50;67.80
35645;DHT22;21764;52.042;6.830;2022-10-16T09:41:49;29.50;70.20
35645;DHT22;21764;52.042;6.830;2022-10-16T09:47:04;32.50;68.60
35645;DHT22;21764;52.042;6.830;2022-10-16T09:52:14;31.40;70.00
35645;DHT22;21764;52.042;6.830;2022-10-16T09:57:15;32.10;68.20
35645;DHT22;21764;52.042;6.830;2022-10-16T10:07:30;29.90;72.80
35645;DHT22;21764;52.042;6.830;2022-10-16T10:12:34;33.10;66.70
35645;DHT22;21764;52.042;6.830;2022-10-16T10:17:46;33.10;63.80
35645;DHT22;21764;52.042;6.830;2022-10-16T10:22:47;31.40;66.30
35645;DHT22;21764;52.042;6.830;2022-10-16T10:33:31;30.10;68.20
35645;DHT22;21764;52.042;6.830;2022-10-16T11:10:13;23.80;84.00
35645;DHT22;21764;52.042;6.830;2022-10-16T11:25:32;21.70;91.50
35645;DHT22;21764;52.042;6.830;2022-10-16T11:30:44;21.30;92.20
35645;DHT22;21764;52.042;6.830;2022-10-16T11:41:48;21.30;93.70
35645;DHT22;21764;52.042;6.830;2022-10-16T11:46:46;20.60;93.80
35645;DHT22;21764;52.042;6.830;2022-10-16T11:57:12;20.40;96.40
35645;DHT22;21764;52.042;6.830;2022-10-16T12:07:45;20.00;98.00
35645;DHT22;21764;52.042;6.830;2022-10-16T12:13:01;20.10;99.10
35645;DHT22;21764;52.042;6.830;2022-10-16T12:18:02;20.20;98.00
35645;DHT22;21764;52.042;6.830;2022-10-16T12:23:05;20.10;98.50
35645;DHT22;21764;52.042;6.830;2022-10-16T12:28:26;20.10;99.60
35645;DHT22;21764;52.042;6.830;2022-10-16T12:33:30;19.70;99.00
35645;DHT22;21764;52.042;6.830;2022-10-16T12:38:46;19.70;99.10
35645;DHT22;21764;52.042;6.830;2022-10-16T12:43:47;19.60;99.30
35645;DHT22;21764;52.042;6.830;2022-10-16T12:48:48;19.70;99.90
35645;DHT22;21764;52.042;6.830;2022-10-16T12:54:01;19.80;99.90
35645;DHT22;21764;52.042;6.830;2022-10-16T12:59:22;19.50;98.30
35645;DHT22;21764;52.042;6.830;2022-10-16T13:04:34;19.40;99.00
35645;DHT22;21764;52.042;6.830;2022-10-16T13:09:43;19.50;99.90
35645;DHT22;21764;52.042;6.830;2022-10-16T13:30:26;19.70;99.90
35645;DHT22;21764;52.042;6.830;2022-10-16T13:35:31;19.70;99.90
35645;DHT22;21764;52.042;6.830;2022-10-16T13:40:32;19.60;99.90
35645;DHT22;21764;52.042;6.830;2022-10-16T13:45:34;19.60;99.90
35645;DHT22;21764;52.042;6.830;2022-10-16T13:50:35;19.80;99.90
35645;DHT22;21764;52.042;6.830;2022-10-16T13:55:36;19.80;99.90
35645;DHT22;21764;52.042;6.830;2022-10-16T14:00:37;20.00;99.90
35645;DHT22;21764;52.042;6.830;2022-10-16T14:05:48;20.00;99.90
35645;DHT22;21764;52.042;6.830;2022-10-16T14:10:52;19.70;99.90
35645;DHT22;21764;52.042;6.830;2022-10-16T14:15:53;19.50;99.90
35645;DHT22;21764;52.042;6.830;2022-10-16T14:20:55;19.50;99.90
35645;DHT22;21764;52.042;6.830;2022-10-16T14:31:31;19.40;99.90
35645;DHT22;21764;52.042;6.830;2022-10-16T14:36:33;19.30;99.90
35645;DHT22;21764;52.042;6.830;2022-10-16T14:41:42;19.10;99.90
35645;DHT22;21764;52.042;6.830;2022-10-16T14:46:45;19.10;99.90
35645;DHT22;21764;52.042;6.830;2022-10-16T14:51:46;19.20;99.90
35645;DHT22;21764;52.042;6.830;2022-10-16T14:56:56;19.20;99.90
35645;DHT22;21764;52.042;6.830;2022-10-16T15:01:57;18.80;99.90
35645;DHT22;21764;52.042;6.830;2022-10-16T15:06:57;18.60;99.90
35645;DHT22;21764;52.042;6.830;2022-10-16T15:11:58;18.80;99.90
35645;DHT22;21764;52.042;6.830;2022-10-16T15:16:59;19.00;99.90
35645;DHT22;21764;52.042;6.830;2022-10-16T15:21:59;19.00;99.90
35645;DHT22;21764;52.042;6.830;2022-10-16T15:27:00;18.70;99.90
35645;DHT22;21764;52.042;6.830;2022-10-16T15:32:01;18.30;99.90
35645;DHT22;21764;52.042;6.830;2022-10-16T15:37:05;18.50;99.90
35645;DHT22;21764;52.042;6.830;2022-10-16T15:42:05;18.40;99.90
35645;DHT22;21764;52.042;6.830;2022-10-16T15:47:07;18.00;99.90
35645;DHT22;21764;52.042;6.830;2022-10-16T15:52:08;17.80;99.90
35645;DHT22;21764;52.042;6.830;2022-10-16T15:57:09;17.50;99.90
35645;DHT22;21764;52.042;6.830;2022-10-16T16:02:09;17.40;99.90
35645;DHT22;21764;52.042;6.830;2022-10-16T16:07:10;17.20;99.90
35645;DHT22;21764;52.042;6.830;2022-10-16T16:12:11;17.10;99.90
35645;DHT22;21764;52.042;6.830;2022-10-16T16:17:12;17.10;99.90
35645;DHT22;21764;52.042;6.830;2022-10-16T16:22:12;17.00;99.90
35645;DHT22;21764;52.042;6.830;2022-10-16T16:27:13;16.90;99.90
35645;DHT22;21764;52.042;6.830;2022-10-16T16:32:14;16.70;99.90
35645;DHT22;21764;52.042;6.830;2022-10-16T16:37:14;16.50;99.90
35645;DHT22;21764;52.042;6.830;2022-10-16T16:42:15;16.50;99.90
35645;DHT22;21764;52.042;6.830;2022-10-16T16:47:16;16.60;99.90
35645;DHT22;21764;52.042;6.830;2022-10-16T16:52:17;16.40;99.90
35645;DHT22;21764;52.042;6.830;2022-10-16T16:57:19;16.10;99.90
35645;DHT22;21764;52.042;6.830;2022-10-16T17:02:20;15.90;99.90
35645;DHT22;21764;52.042;6.830;2022-10-16T17:07:20;15.70;99.90
35645;DHT22;21764;52.042;6.830;2022-10-16T17:12:21;15.60;99.90
35645;DHT22;21764;52.042;6.830;2022-10-16T17:17:22;15.60;99.90
35645;DHT22;21764;52.042;6.830;2022-10-16T17:22:22;15.50;99.90
35645;DHT22;21764;52.042;6.830;2022-10-16T17:27:24;15.40;99.90
35645;DHT22;21764;52.042;6.830;2022-10-16T17:32:24;15.40;99.90
35645;DHT22;21764;52.042;6.830;2022-10-16T17:37:25;15.40;99.90
35645;DHT22;21764;52.042;6.830;2022-10-16T17:42:26;15.40;99.90
35645;DHT22;21764;52.042;6.830;2022-10-16T17:47:27;15.30;99.90
35645;DHT22;21764;52.042;6.830;2022-10-16T17:52:28;15.10;99.90
35645;DHT22;21764;52.042;6.830;2022-10-16T17:57:29;15.00;99.90
35645;DHT22;21764;52.042;6.830;2022-10-16T18:02:29;14.90;99.90
35645;DHT22;21764;52.042;6.830;2022-10-16T18:07:30;14.80;99.90
35645;DHT22;21764;52.042;6.830;2022-10-16T18:12:31;14.80;99.90
35645;DHT22;21764;52.042;6.830;2022-10-16T18:17:34;14.70;99.90
35645;DHT22;21764;52.042;6.830;2022-10-16T18:22:37;14.60;99.90
35645;DHT22;21764;52.042;6.830;2022-10-16T18:27:37;14.50;99.90
35645;DHT22;21764;52.042;6.830;2022-10-16T18:32:38;14.50;99.90
35645;DHT22;21764;52.042;6.830;2022-10-16T18:37:39;14.60;99.90
35645;DHT22;21764;52.042;6.830;2022-10-16T18:42:39;14.50;99.90
35645;DHT22;21764;52.042;6.830;2022-10-16T18:47:40;14.50;99.90
35645;DHT22;21764;52.042;6.830;2022-10-16T18:52:46;14.50;99.90
35645;DHT22;21764;52.042;6.830;2022-10-16T18:57:48;14.60;99.90
35645;DHT22;21764;52.042;6.830;2022-10-16T19:02:48;14.60;99.90
35645;DHT22;21764;52.042;6.830;2022-10-16T19:07:49;14.60;99.90
35645;DHT22;21764;52.042;6.830;2022-10-16T19:12:50;14.70;99.90
35645;DHT22;21764;52.042;6.830;2022-10-16T19:17:50;14.90;99.90
35645;DHT22;21764;52.042;6.830;2022-10-16T19:22:51;15.00;99.90
35645;DHT22;21764;52.042;6.830;2022-10-16T19:27:55;15.00;99.90
35645;DHT22;21764;52.042;6.830;2022-10-16T19:32:56;14.90;99.90
35645;DHT22;21764;52.042;6.830;2022-10-16T19:37:57;15.10;99.90
35645;DHT22;21764;52.042;6.830;2022-10-16T19:42:57;15.20;99.90
35645;DHT22;21764;52.042;6.830;2022-10-16T19:47:58;15.20;99.90
35645;DHT22;21764;52.042;6.830;2022-10-16T19:52:59;15.10;99.90
35645;DHT22;21764;52.042;6.830;2022-10-16T19:57:59;15.20;99.90
35645;DHT22;21764;52.042;6.830;2022-10-16T20:03:00;15.10;99.90
35645;DHT22;21764;52.042;6.830;2022-10-16T20:08:02;15.00;99.90
35645;DHT22;21764;52.042;6.830;2022-10-16T20:13:03;15.10;99.90
35645;DHT22;21764;52.042;6.830;2022-10-16T20:18:08;15.10;99.90
35645;DHT22;21764;52.042;6.830;2022-10-16T20:23:10;14.70;99.90
35645;DHT22;21764;52.042;6.830;2022-10-16T20:28:16;14.10;99.90
35645;DHT22;21764;52.042;6.830;2022-10-16T20:33:19;14.00;99.90
35645;DHT22;21764;52.042;6.830;2022-10-16T20:38:23;14.00;99.90
35645;DHT22;21764;52.042;6.830;2022-10-16T20:43:28;14.00;99.90
35645;DHT22;21764;52.042;6.830;2022-10-16T20:48:36;14.20;99.90
35645;DHT22;21764;52.042;6.830;2022-10-16T20:53:40;14.30;99.90
35645;DHT22;21764;52.042;6.830;2022-10-16T20:58:41;14.30;99.90
35645;DHT22;21764;52.042;6.830;2022-10-16T21:03:43;14.40;99.90
35645;DHT22;21764;52.042;6.830;2022-10-16T21:08:48;14.30;99.90
35645;DHT22;21764;52.042;6.830;2022-10-16T21:13:51;14.20;99.90
35645;DHT22;21764;52.042;6.830;2022-10-16T21:18:52;14.40;99.90
35645;DHT22;21764;52.042;6.830;2022-10-16T21:23:57;14.50;99.90
35645;DHT22;21764;52.042;6.830;2022-10-16T21:29:05;14.30;99.90
35645;DHT22;21764;52.042;6.830;2022-10-16T21:34:06;14.20;99.90
35645;DHT22;21764;52.042;6.830;2022-10-16T21:39:09;14.00;99.90
35645;DHT22;21764;52.042;6.830;2022-10-16T21:44:10;14.10;99.90
35645;DHT22;21764;52.042;6.830;2022-10-16T21:49:16;14.10;99.90
35645;DHT22;21764;52.042;6.830;2022-10-16T21:54:19;14.00;99.90
35645;DHT22;21764;52.042;6.830;2022-10-16T21:59:20;13.90;99.90
35645;DHT22;21764;52.042;6.830;2022-10-16T22:04:21;13.80;99.90
35645;DHT22;21764;52.042;6.830;2022-10-16T22:09:22;13.80;99.90
35645;DHT22;21764;52.042;6.830;2022-10-16T22:14:22;13.80;99.90
35645;DHT22;21764;52.042;6.830;2022-10-16T22:19:23;13.70;99.90
35645;DHT22;21764;52.042;6.830;2022-10-16T22:24:23;13.80;99.90
35645;DHT22;21764;52.042;6.830;2022-10-16T22:29:24;13.80;99.90
35645;DHT22;21764;52.042;6.830;2022-10-16T22:34:25;13.90;99.90
35645;DHT22;21764;52.042;6.830;2022-10-16T22:39:27;13.90;99.90
35645;DHT22;21764;52.042;6.830;2022-10-16T22:44:29;13.90;99.90
35645;DHT22;21764;52.042;6.830;2022-10-16T22:49:29;13.60;99.90
35645;DHT22;21764;52.042;6.830;2022-10-16T22:54:30;13.60;99.90
35645;DHT22;21764;52.042;6.830;2022-10-16T22:59:31;13.50;99.90
35645;DHT22;21764;52.042;6.830;2022-10-16T23:04:31;13.40;99.90
35645;DHT22;21764;52.042;6.830;2022-10-16T23:09:32;13.40;99.90
35645;DHT22;21764;52.042;6.830;2022-10-16T23:14:33;13.50;99.90
35645;DHT22;21764;52.042;6.830;2022-10-16T23:19:33;13.40;99.90
35645;DHT22;21764;52.042;6.830;2022-10-16T23:24:34;13.60;99.90
35645;DHT22;21764;52.042;6.830;2022-10-16T23:29:35;13.50;99.90
35645;DHT22;21764;52.042;6.830;2022-10-16T23:34:35;13.60;99.90
35645;DHT22;21764;52.042;6.830;2022-10-16T23:39:36;13.50;99.90
35645;DHT22;21764;52.042;6.830;2022-10-16T23:44:37;13.50;99.90
35645;DHT22;21764;52.042;6.830;2022-10-16T23:49:37;13.50;99.90
35645;DHT22;21764;52.042;6.830;2022-10-16T23:54:38;13.50;99.90
35645;DHT22;21764;52.042;6.830;2022-10-16T23:59:39;13.50;99.90
